EDT,Max TemperatureF,Mean TemperatureF,Min TemperatureF,Max Dew PointF,MeanDew PointF,Min DewpointF,Max Humidity, Mean Humidity, Min Humidity, Max Sea Level PressureIn, Mean Sea Level PressureIn, Min Sea Level PressureIn, Max VisibilityMiles, Mean VisibilityMiles, Min VisibilityMiles, Max Wind SpeedMPH, Mean Wind SpeedMPH, Max Gust SpeedMPH,PrecipitationIn, CloudCover, Events, WindDirDegrees
2013-7-1,72,69,65,66,64,61,93,86,78,29.93,29.88,29.82,10,10,6,15,8,23,0.06,8,Rain,38
2013-7-2,78,71,63,67,64,62,100,79,58,30.00,29.95,29.90,10,8,1,15,6,26,0.40,6,Rain,63
2013-7-3,79,70,61,67,63,61,100,79,58,30.10,30.04,29.99,10,5,0,13,4,20,0.00,3,Fog,182
2013-7-4,75,68,60,70,64,59,100,85,69,30.13,30.10,30.06,10,6,2,9,3,13,T,1,Rain,124
2013-7-5,81,72,63,70,65,63,100,81,62,30.14,30.09,30.05,10,6,0,10,3,13,0.00,5,Fog,147
2013-7-6,76,71,65,70,67,64,93,83,73,30.11,30.08,30.03,10,10,7,9,4,14,0.02,6,Rain,163
2013-7-7,84,74,64,69,66,64,100,78,55,30.11,30.07,30.02,10,9,2,9,4,14,0.00,3,,186
2013-7-8,86,77,67,73,70,66,100,81,61,30.12,30.08,30.03,10,10,8,14,5,20,T,1,,221
2013-7-9,88,81,74,76,73,71,87,75,63,30.06,30.02,29.96,10,10,10,14,6,17,0.06,3,Rain,224
2013-7-10,84,76,68,75,71,64,100,81,62,30.03,29.94,29.81,10,9,2,21,5,36,0.25,4,Rain-Thunderstorm,251
2013-7-11,81,70,59,72,60,56,93,68,42,30.03,29.99,29.94,10,10,10,17,8,22,0.00,1,,17
2013-7-12,82,69,56,59,56,55,100,71,42,30.10,30.07,30.04,10,10,10,14,5,21,0.00,0,,51
2013-7-13,84,72,60,70,63,58,100,74,47,30.12,30.08,30.04,10,6,0,23,6,28,0.26,1,Fog-Rain,63
2013-7-14,88,76,63,73,67,63,100,75,50,30.19,30.13,30.09,10,8,1,15,4,21,0.00,1,,125
2013-7-15,88,79,70,73,71,69,94,75,55,30.28,30.23,30.19,10,10,10,13,4,17,0.00,2,,155
2013-7-16,92,80,67,77,70,66,100,75,49,30.32,30.29,30.26,10,9,2,7,1,9,0.00,1,,342
2013-7-17,93,81,69,76,72,69,100,75,49,30.33,30.27,30.19,10,8,4,10,2,12,0.00,1,,351
2013-7-18,93,81,69,77,71,68,100,75,49,30.21,30.14,30.03,10,7,2,8,1,10,0.00,0,,295
2013-7-19,90,82,73,75,73,71,100,78,56,30.04,29.98,29.88,10,8,2,13,6,18,0.00,1,Thunderstorm,237
2013-7-20,88,78,67,73,69,65,100,82,63,30.00,29.90,29.86,10,8,0,23,6,31,1.14,3,Fog-Rain,236
2013-7-21,86,75,63,73,66,63,100,78,55,29.96,29.93,29.87,10,6,0,14,1,20,0.81,1,Fog-Rain-Thunderstorm,29
2013-7-22,82,76,69,72,70,68,100,85,69,29.95,29.84,29.78,10,8,1,13,3,17,0.17,6,Rain-Thunderstorm,201
2013-7-23,87,77,67,76,70,62,100,83,65,29.85,29.80,29.75,10,7,0,38,5,47,0.92,3,Rain-Thunderstorm,244
2013-7-24,77,67,57,59,57,55,93,72,50,30.00,29.94,29.86,10,10,10,14,6,17,0.00,1,,14
2013-7-25,79,67,54,61,56,53,100,72,43,30.09,30.05,30.00,10,10,7,13,3,17,0.00,0,,25
2013-7-26,78,66,54,66,60,54,100,75,50,30.08,30.03,29.95,10,10,8,10,2,14,T,1,,208
2013-7-27,76,66,56,64,61,49,93,72,50,29.95,29.92,29.88,10,9,2,13,7,21,0.08,6,Rain,248
2013-7-28,73,61,49,60,51,48,100,72,44,30.06,30.00,29.95,10,10,10,15,4,21,0.00,3,,251
2013-7-29,78,65,52,62,55,51,100,74,47,30.18,30.13,30.06,10,10,10,10,2,15,0.00,0,,282
2013-7-30,77,68,59,66,63,58,100,80,60,30.20,30.15,30.09,10,10,5,10,4,14,0.08,6,Rain,155
2013-7-31,76,71,65,70,67,63,93,88,82,30.08,30.01,29.94,10,9,2,9,3,12,0.01,8,Rain,178